sensor_id;sensor_type;location;lat;lon;timestamp;temperature;humidity
4904;DHT22;2467;48.142;11.616;2023-06-10T00:00:10;19.50;98.90
4904;DHT22;2467;48.142;11.616;2023-06-10T00:00:44;19.60;99.10
4904;DHT22;2467;48.142;11.616;2023-06-10T00:01:19;19.50;99.00
4904;DHT22;2467;48.142;11.616;2023-06-10T00:01:51;19.40;99.10
4904;DHT22;2467;48.142;11.616;2023-06-10T00:02:27;19.50;99.10
4904;DHT22;2467;48.142;11.616;2023-06-10T00:03:00;19.50;99.30
4904;DHT22;2467;48.142;11.616;2023-06-10T00:03:33;19.50;99.30
4904;DHT22;2467;48.142;11.616;2023-06-10T00:04:05;19.50;99.30
4904;DHT22;2467;48.142;11.616;2023-06-10T00:04:39;19.50;99.30
4904;DHT22;2467;48.142;11.616;2023-06-10T00:05:11;19.50;99.30
4904;DHT22;2467;48.142;11.616;2023-06-10T00:05:43;19.50;99.20
4904;DHT22;2467;48.142;11.616;2023-06-10T00:06:16;19.50;99.20
4904;DHT22;2467;48.142;11.616;2023-06-10T00:06:48;19.50;99.10
4904;DHT22;2467;48.142;11.616;2023-06-10T00:07:21;19.50;99.00
4904;DHT22;2467;48.142;11.616;2023-06-10T00:07:54;19.50;99.10
4904;DHT22;2467;48.142;11.616;2023-06-10T00:08:26;19.40;99.20
4904;DHT22;2467;48.142;11.616;2023-06-10T00:08:58;19.50;99.30
4904;DHT22;2467;48.142;11.616;2023-06-10T00:09:32;19.40;99.30
4904;DHT22;2467;48.142;11.616;2023-06-10T00:10:04;19.50;99.20
4904;DHT22;2467;48.142;11.616;2023-06-10T00:10:38;19.50;99.00
4904;DHT22;2467;48.142;11.616;2023-06-10T00:11:11;19.40;98.80
4904;DHT22;2467;48.142;11.616;2023-06-10T00:11:42;19.40;98.80
4904;DHT22;2467;48.142;11.616;2023-06-10T00:12:14;19.40;98.80
4904;DHT22;2467;48.142;11.616;2023-06-10T00:12:48;19.30;98.80
4904;DHT22;2467;48.142;11.616;2023-06-10T00:13:20;19.30;98.60
4904;DHT22;2467;48.142;11.616;2023-06-10T00:13:52;19.30;98.70
4904;DHT22;2467;48.142;11.616;2023-06-10T00:14:25;19.40;98.60
4904;DHT22;2467;48.142;11.616;2023-06-10T00:14:57;19.30;98.60
4904;DHT22;2467;48.142;11.616;2023-06-10T00:15:29;19.30;98.90
4904;DHT22;2467;48.142;11.616;2023-06-10T00:16:02;19.30;98.70
4904;DHT22;2467;48.142;11.616;2023-06-10T00:16:36;19.30;98.80
4904;DHT22;2467;48.142;11.616;2023-06-10T00:17:10;19.30;98.90
4904;DHT22;2467;48.142;11.616;2023-06-10T00:17:42;19.30;99.00
4904;DHT22;2467;48.142;11.616;2023-06-10T00:18:14;19.30;99.00
4904;DHT22;2467;48.142;11.616;2023-06-10T00:18:49;19.30;98.90
4904;DHT22;2467;48.142;11.616;2023-06-10T00:19:22;19.20;98.90
4904;DHT22;2467;48.142;11.616;2023-06-10T00:19:57;19.30;99.00
4904;DHT22;2467;48.142;11.616;2023-06-10T00:20:30;19.30;99.00
4904;DHT22;2467;48.142;11.616;2023-06-10T00:21:03;19.20;99.00
4904;DHT22;2467;48.142;11.616;2023-06-10T00:21:36;19.20;99.10
4904;DHT22;2467;48.142;11.616;2023-06-10T00:22:11;19.10;99.20
4904;DHT22;2467;48.142;11.616;2023-06-10T00:22:43;19.20;99.30
4904;DHT22;2467;48.142;11.616;2023-06-10T00:23:17;19.10;99.30
4904;DHT22;2467;48.142;11.616;2023-06-10T00:23:50;19.10;99.60
4904;DHT22;2467;48.142;11.616;2023-06-10T00:24:22;19.10;99.70
4904;DHT22;2467;48.142;11.616;2023-06-10T00:24:54;19.10;99.70
4904;DHT22;2467;48.142;11.616;2023-06-10T00:25:27;19.10;99.60
4904;DHT22;2467;48.142;11.616;2023-06-10T00:25:59;19.10;99.60
4904;DHT22;2467;48.142;11.616;2023-06-10T00:26:31;19.10;99.60
4904;DHT22;2467;48.142;11.616;2023-06-10T00:27:05;19.10;99.70
4904;DHT22;2467;48.142;11.616;2023-06-10T00:27:38;19.10;99.70
4904;DHT22;2467;48.142;11.616;2023-06-10T00:28:10;19.20;99.70
4904;DHT22;2467;48.142;11.616;2023-06-10T00:28:43;19.20;99.60
4904;DHT22;2467;48.142;11.616;2023-06-10T00:29:16;19.20;99.50
4904;DHT22;2467;48.142;11.616;2023-06-10T00:29:48;19.20;99.40
4904;DHT22;2467;48.142;11.616;2023-06-10T00:30:21;19.20;99.50
4904;DHT22;2467;48.142;11.616;2023-06-10T00:30:53;19.20;99.50
4904;DHT22;2467;48.142;11.616;2023-06-10T00:31:25;19.20;99.60
4904;DHT22;2467;48.142;11.616;2023-06-10T00:32:00;19.10;99.50
4904;DHT22;2467;48.142;11.616;2023-06-10T00:32:32;19.20;99.40
4904;DHT22;2467;48.142;11.616;2023-06-10T00:33:04;19.20;99.60
4904;DHT22;2467;48.142;11.616;2023-06-10T00:33:37;19.10;99.60
4904;DHT22;2467;48.142;11.616;2023-06-10T00:34:09;19.10;99.70
4904;DHT22;2467;48.142;11.616;2023-06-10T00:34:41;19.10;99.70
4904;DHT22;2467;48.142;11.616;2023-06-10T00:35:14;19.20;99.70
4904;DHT22;2467;48.142;11.616;2023-06-10T00:35:46;19.20;99.70
4904;DHT22;2467;48.142;11.616;2023-06-10T00:36:18;19.20;99.70
4904;DHT22;2467;48.142;11.616;2023-06-10T00:36:51;19.20;99.50
4904;DHT22;2467;48.142;11.616;2023-06-10T00:37:23;19.20;99.50
4904;DHT22;2467;48.142;11.616;2023-06-10T00:37:55;19.20;99.60
4904;DHT22;2467;48.142;11.616;2023-06-10T00:38:28;19.20;99.50
4904;DHT22;2467;48.142;11.616;2023-06-10T00:39:00;19.20;99.50
4904;DHT22;2467;48.142;11.616;2023-06-10T00:39:32;19.20;99.40
4904;DHT22;2467;48.142;11.616;2023-06-10T00:40:06;19.20;99.40
4904;DHT22;2467;48.142;11.616;2023-06-10T00:40:41;19.20;99.40
4904;DHT22;2467;48.142;11.616;2023-06-10T00:41:13;19.20;99.40
4904;DHT22;2467;48.142;11.616;2023-06-10T00:41:46;19.20;99.50
4904;DHT22;2467;48.142;11.616;2023-06-10T00:42:18;19.20;99.40
4904;DHT22;2467;48.142;11.616;2023-06-10T00:42:50;19.20;99.40
4904;DHT22;2467;48.142;11.616;2023-06-10T00:43:24;19.20;99.40
4904;DHT22;2467;48.142;11.616;2023-06-10T00:43:56;19.10;99.30
4904;DHT22;2467;48.142;11.616;2023-06-10T00:44:28;19.10;99.40
4904;DHT22;2467;48.142;11.616;2023-06-10T00:45:01;19.20;99.40
4904;DHT22;2467;48.142;11.616;2023-06-10T00:45:33;19.20;99.40
4904;DHT22;2467;48.142;11.616;2023-06-10T00:46:05;19.20;99.40
4904;DHT22;2467;48.142;11.616;2023-06-10T00:46:38;19.20;99.50
4904;DHT22;2467;48.142;11.616;2023-06-10T00:47:12;19.20;99.50
4904;DHT22;2467;48.142;11.616;2023-06-10T00:47:44;19.10;99.50
4904;DHT22;2467;48.142;11.616;2023-06-10T00:48:17;19.20;99.60
4904;DHT22;2467;48.142;11.616;2023-06-10T00:48:49;19.10;99.60
4904;DHT22;2467;48.142;11.616;2023-06-10T00:49:21;19.10;99.60
4904;DHT22;2467;48.142;11.616;2023-06-10T00:49:54;19.10;99.60
4904;DHT22;2467;48.142;11.616;2023-06-10T00:50:26;19.10;99.60
4904;DHT22;2467;48.142;11.616;2023-06-10T00:50:59;19.10;99.50
4904;DHT22;2467;48.142;11.616;2023-06-10T00:51:32;19.20;99.60
4904;DHT22;2467;48.142;11.616;2023-06-10T00:52:07;19.10;99.50
4904;DHT22;2467;48.142;11.616;2023-06-10T00:52:39;19.10;99.60
4904;DHT22;2467;48.142;11.616;2023-06-10T00:53:15;19.10;99.60
4904;DHT22;2467;48.142;11.616;2023-06-10T00:53:47;19.10;99.70
4904;DHT22;2467;48.142;11.616;2023-06-10T00:54:20;19.10;99.80
4904;DHT22;2467;48.142;11.616;2023-06-10T00:54:53;19.10;99.80
4904;DHT22;2467;48.142;11.616;2023-06-10T00:55:25;19.10;99.90
4904;DHT22;2467;48.142;11.616;2023-06-10T00:55:58;19.10;99.90
4904;DHT22;2467;48.142;11.616;2023-06-10T00:56:32;19.00;99.90
4904;DHT22;2467;48.142;11.616;2023-06-10T00:57:05;19.00;99.90
4904;DHT22;2467;48.142;11.616;2023-06-10T00:57:37;19.00;99.90
4904;DHT22;2467;48.142;11.616;2023-06-10T00:58:10;19.00;99.90
4904;DHT22;2467;48.142;11.616;2023-06-10T00:58:43;19.00;99.90
4904;DHT22;2467;48.142;11.616;2023-06-10T00:59:15;19.00;99.90
4904;DHT22;2467;48.142;11.616;2023-06-10T00:59:48;19.00;99.90
4904;DHT22;2467;48.142;11.616;2023-06-10T01:00:22;19.00;99.90
4904;DHT22;2467;48.142;11.616;2023-06-10T01:00:54;19.00;99.90
4904;DHT22;2467;48.142;11.616;2023-06-10T01:01:28;19.00;99.90
4904;DHT22;2467;48.142;11.616;2023-06-10T01:02:01;19.00;99.90
4904;DHT22;2467;48.142;11.616;2023-06-10T01:02:35;18.90;99.90
4904;DHT22;2467;48.142;11.616;2023-06-10T01:03:07;18.90;99.90
4904;DHT22;2467;48.142;11.616;2023-06-10T01:03:41;18.90;99.90
4904;DHT22;2467;48.142;11.616;2023-06-10T01:04:13;18.90;99.90
4904;DHT22;2467;48.142;11.616;2023-06-10T01:04:45;18.90;99.90
4904;DHT22;2467;48.142;11.616;2023-06-10T01:05:20;18.90;99.90
4904;DHT22;2467;48.142;11.616;2023-06-10T01:05:57;18.90;99.90
4904;DHT22;2467;48.142;11.616;2023-06-10T01:06:43;18.90;99.90
4904;DHT22;2467;48.142;11.616;2023-06-10T01:07:24;18.90;99.90
4904;DHT22;2467;48.142;11.616;2023-06-10T01:08:03;18.90;99.90
4904;DHT22;2467;48.142;11.616;2023-06-10T01:08:43;18.80;99.90
4904;DHT22;2467;48.142;11.616;2023-06-10T01:09:23;18.80;99.90
4904;DHT22;2467;48.142;11.616;2023-06-10T01:10:01;18.80;99.90
4904;DHT22;2467;48.142;11.616;2023-06-10T01:10:38;18.80;99.90
4904;DHT22;2467;48.142;11.616;2023-06-10T01:11:17;18.80;99.90
4904;DHT22;2467;48.142;11.616;2023-06-10T01:11:55;18.70;99.90
4904;DHT22;2467;48.142;11.616;2023-06-10T01:12:33;18.70;99.90
4904;DHT22;2467;48.142;11.616;2023-06-10T01:13:07;18.70;99.90
4904;DHT22;2467;48.142;11.616;2023-06-10T01:13:43;18.70;99.90
4904;DHT22;2467;48.142;11.616;2023-06-10T01:14:17;18.70;99.90
4904;DHT22;2467;48.142;11.616;2023-06-10T01:14:49;18.70;99.90
4904;DHT22;2467;48.142;11.616;2023-06-10T01:15:23;18.70;99.90
4904;DHT22;2467;48.142;11.616;2023-06-10T01:15:56;18.70;99.90
4904;DHT22;2467;48.142;11.616;2023-06-10T01:16:28;18.70;99.90
4904;DHT22;2467;48.142;11.616;2023-06-10T01:17:01;18.60;99.90
4904;DHT22;2467;48.142;11.616;2023-06-10T01:17:37;18.60;99.90
4904;DHT22;2467;48.142;11.616;2023-06-10T01:18:22;18.60;99.90
4904;DHT22;2467;48.142;11.616;2023-06-10T01:18:55;18.60;99.90
4904;DHT22;2467;48.142;11.616;2023-06-10T01:19:28;18.60;99.90
4904;DHT22;2467;48.142;11.616;2023-06-10T01:20:02;18.60;99.90
4904;DHT22;2467;48.142;11.616;2023-06-10T01:20:44;18.60;99.90
4904;DHT22;2467;48.142;11.616;2023-06-10T01:21:23;18.60;99.90
4904;DHT22;2467;48.142;11.616;2023-06-10T01:21:56;18.60;99.90
4904;DHT22;2467;48.142;11.616;2023-06-10T01:22:32;18.60;99.90
4904;DHT22;2467;48.142;11.616;2023-06-10T01:23:09;18.60;99.90
4904;DHT22;2467;48.142;11.616;2023-06-10T01:23:41;18.70;99.90
4904;DHT22;2467;48.142;11.616;2023-06-10T01:24:13;18.50;99.90
4904;DHT22;2467;48.142;11.616;2023-06-10T01:24:45;18.50;99.90
4904;DHT22;2467;48.142;11.616;2023-06-10T01:25:22;18.50;99.90
4904;DHT22;2467;48.142;11.616;2023-06-10T01:26:02;18.50;99.90
4904;DHT22;2467;48.142;11.616;2023-06-10T01:26:35;18.40;99.90
4904;DHT22;2467;48.142;11.616;2023-06-10T01:27:12;18.40;99.90
4904;DHT22;2467;48.142;11.616;2023-06-10T01:27:46;18.40;99.90
4904;DHT22;2467;48.142;11.616;2023-06-10T01:28:23;18.40;99.90
4904;DHT22;2467;48.142;11.616;2023-06-10T01:29:03;18.40;99.90
4904;DHT22;2467;48.142;11.616;2023-06-10T01:29:41;18.40;99.90
4904;DHT22;2467;48.142;11.616;2023-06-10T01:30:18;18.30;99.90
4904;DHT22;2467;48.142;11.616;2023-06-10T01:31:00;18.30;99.90
4904;DHT22;2467;48.142;11.616;2023-06-10T01:31:46;18.30;99.90
4904;DHT22;2467;48.142;11.616;2023-06-10T01:32:25;18.30;99.90
4904;DHT22;2467;48.142;11.616;2023-06-10T01:32:59;18.20;99.90
4904;DHT22;2467;48.142;11.616;2023-06-10T01:33:37;18.20;99.90
4904;DHT22;2467;48.142;11.616;2023-06-10T01:34:11;18.20;99.90
4904;DHT22;2467;48.142;11.616;2023-06-10T01:34:44;18.40;99.90
4904;DHT22;2467;48.142;11.616;2023-06-10T01:35:19;18.20;99.90
4904;DHT22;2467;48.142;11.616;2023-06-10T01:35:53;18.20;99.90
4904;DHT22;2467;48.142;11.616;2023-06-10T01:36:27;18.20;99.90
4904;DHT22;2467;48.142;11.616;2023-06-10T01:37:00;18.20;99.90
4904;DHT22;2467;48.142;11.616;2023-06-10T01:37:33;18.20;99.90
4904;DHT22;2467;48.142;11.616;2023-06-10T01:38:06;18.30;99.90
4904;DHT22;2467;48.142;11.616;2023-06-10T01:38:42;18.20;99.90
4904;DHT22;2467;48.142;11.616;2023-06-10T01:39:15;18.30;99.90
4904;DHT22;2467;48.142;11.616;2023-06-10T01:39:49;18.20;99.90
4904;DHT22;2467;48.142;11.616;2023-06-10T01:40:23;18.20;99.90
4904;DHT22;2467;48.142;11.616;2023-06-10T01:40:55;18.30;99.90
4904;DHT22;2467;48.142;11.616;2023-06-10T01:41:28;18.20;99.90
4904;DHT22;2467;48.142;11.616;2023-06-10T01:42:02;18.20;99.90
4904;DHT22;2467;48.142;11.616;2023-06-10T01:42:35;18.20;99.90
4904;DHT22;2467;48.142;11.616;2023-06-10T01:43:07;18.20;99.90
4904;DHT22;2467;48.142;11.616;2023-06-10T01:43:40;18.20;99.90
4904;DHT22;2467;48.142;11.616;2023-06-10T01:44:17;18.30;99.90
4904;DHT22;2467;48.142;11.616;2023-06-10T01:44:49;18.30;99.90
4904;DHT22;2467;48.142;11.616;2023-06-10T01:45:22;18.30;99.90
4904;DHT22;2467;48.142;11.616;2023-06-10T01:45:54;18.20;99.90
4904;DHT22;2467;48.142;11.616;2023-06-10T01:46:26;18.30;99.90
4904;DHT22;2467;48.142;11.616;2023-06-10T01:46:59;18.30;99.90
4904;DHT22;2467;48.142;11.616;2023-06-10T01:47:31;18.30;99.90
4904;DHT22;2467;48.142;11.616;2023-06-10T01:48:03;18.30;99.90
4904;DHT22;2467;48.142;11.616;2023-06-10T01:48:36;18.30;99.90
4904;DHT22;2467;48.142;11.616;2023-06-10T01:49:08;18.30;99.90
4904;DHT22;2467;48.142;11.616;2023-06-10T01:49:40;18.30;99.90
4904;DHT22;2467;48.142;11.616;2023-06-10T01:50:13;18.30;99.90
4904;DHT22;2467;48.142;11.616;2023-06-10T01:50:45;18.20;99.90
4904;DHT22;2467;48.142;11.616;2023-06-10T01:51:17;18.20;99.90
4904;DHT22;2467;48.142;11.616;2023-06-10T01:51:51;18.30;99.90
4904;DHT22;2467;48.142;11.616;2023-06-10T01:52:23;18.20;99.90
4904;DHT22;2467;48.142;11.616;2023-06-10T01:52:57;18.30;99.90
4904;DHT22;2467;48.142;11.616;2023-06-10T01:53:30;18.30;99.90
4904;DHT22;2467;48.142;11.616;2023-06-10T01:54:02;18.20;99.90
4904;DHT22;2467;48.142;11.616;2023-06-10T01:54:34;18.20;99.90
4904;DHT22;2467;48.142;11.616;2023-06-10T01:55:07;18.20;99.90
4904;DHT22;2467;48.142;11.616;2023-06-10T01:55:40;18.20;99.90
4904;DHT22;2467;48.142;11.616;2023-06-10T01:56:11;18.20;99.90
4904;DHT22;2467;48.142;11.616;2023-06-10T01:56:48;18.10;99.90
4904;DHT22;2467;48.142;11.616;2023-06-10T01:57:20;18.10;99.90
4904;DHT22;2467;48.142;11.616;2023-06-10T01:57:52;18.10;99.90
4904;DHT22;2467;48.142;11.616;2023-06-10T01:58:25;18.10;99.90
4904;DHT22;2467;48.142;11.616;2023-06-10T01:58:56;18.10;99.90
4904;DHT22;2467;48.142;11.616;2023-06-10T01:59:30;18.10;99.90
4904;DHT22;2467;48.142;11.616;2023-06-10T02:00:04;18.20;99.90
4904;DHT22;2467;48.142;11.616;2023-06-10T02:00:37;18.10;99.90
4904;DHT22;2467;48.142;11.616;2023-06-10T02:01:09;18.10;99.90
4904;DHT22;2467;48.142;11.616;2023-06-10T02:01:42;18.10;99.90
4904;DHT22;2467;48.142;11.616;2023-06-10T02:02:13;18.10;99.90
4904;DHT22;2467;48.142;11.616;2023-06-10T02:02:45;18.10;99.90
4904;DHT22;2467;48.142;11.616;2023-06-10T02:03:18;18.00;99.90
4904;DHT22;2467;48.142;11.616;2023-06-10T02:03:51;18.00;99.90
4904;DHT22;2467;48.142;11.616;2023-06-10T02:04:22;18.00;99.90
4904;DHT22;2467;48.142;11.616;2023-06-10T02:04:55;18.00;99.90
4904;DHT22;2467;48.142;11.616;2023-06-10T02:05:27;18.00;99.90
4904;DHT22;2467;48.142;11.616;2023-06-10T02:05:59;18.00;99.90
4904;DHT22;2467;48.142;11.616;2023-06-10T02:06:32;18.00;99.90
4904;DHT22;2467;48.142;11.616;2023-06-10T02:07:05;18.00;99.90
4904;DHT22;2467;48.142;11.616;2023-06-10T02:07:37;17.90;99.90
4904;DHT22;2467;48.142;11.616;2023-06-10T02:08:10;17.90;99.90
4904;DHT22;2467;48.142;11.616;2023-06-10T02:08:42;17.90;99.90
4904;DHT22;2467;48.142;11.616;2023-06-10T02:09:14;17.90;99.90
4904;DHT22;2467;48.142;11.616;2023-06-10T02:09:47;17.90;99.90
4904;DHT22;2467;48.142;11.616;2023-06-10T02:10:19;17.80;99.90
4904;DHT22;2467;48.142;11.616;2023-06-10T02:10:50;17.80;99.90
4904;DHT22;2467;48.142;11.616;2023-06-10T02:11:23;17.80;99.90
4904;DHT22;2467;48.142;11.616;2023-06-10T02:11:55;17.80;99.90
4904;DHT22;2467;48.142;11.616;2023-06-10T02:12:27;17.80;99.90
4904;DHT22;2467;48.142;11.616;2023-06-10T02:13:00;17.80;99.90
4904;DHT22;2467;48.142;11.616;2023-06-10T02:13:32;17.80;99.90
4904;DHT22;2467;48.142;11.616;2023-06-10T02:14:04;17.90;99.90
4904;DHT22;2467;48.142;11.616;2023-06-10T02:14:37;17.80;99.90
4904;DHT22;2467;48.142;11.616;2023-06-10T02:15:09;17.80;99.90
4904;DHT22;2467;48.142;11.616;2023-06-10T02:15:41;17.70;99.90
4904;DHT22;2467;48.142;11.616;2023-06-10T02:16:14;17.80;99.90
4904;DHT22;2467;48.142;11.616;2023-06-10T02:16:48;17.70;99.90
4904;DHT22;2467;48.142;11.616;2023-06-10T02:17:20;17.80;99.90
4904;DHT22;2467;48.142;11.616;2023-06-10T02:17:54;17.80;99.90
4904;DHT22;2467;48.142;11.616;2023-06-10T02:18:28;17.80;99.90
4904;DHT22;2467;48.142;11.616;2023-06-10T02:18:59;17.80;99.90
4904;DHT22;2467;48.142;11.616;2023-06-10T02:19:34;17.80;99.90
4904;DHT22;2467;48.142;11.616;2023-06-10T02:20:08;17.80;99.90
4904;DHT22;2467;48.142;11.616;2023-06-10T02:20:42;17.70;99.90
4904;DHT22;2467;48.142;11.616;2023-06-10T02:21:15;17.90;99.90
4904;DHT22;2467;48.142;11.616;2023-06-10T02:21:47;17.80;99.90
4904;DHT22;2467;48.142;11.616;2023-06-10T02:22:22;17.80;99.90
4904;DHT22;2467;48.142;11.616;2023-06-10T02:22:55;17.80;99.90
4904;DHT22;2467;48.142;11.616;2023-06-10T02:23:26;17.80;99.90
4904;DHT22;2467;48.142;11.616;2023-06-10T02:23:58;17.80;99.90
4904;DHT22;2467;48.142;11.616;2023-06-10T02:24:31;17.80;99.90
4904;DHT22;2467;48.142;11.616;2023-06-10T02:25:04;17.90;99.90
4904;DHT22;2467;48.142;11.616;2023-06-10T02:25:36;17.80;99.90
4904;DHT22;2467;48.142;11.616;2023-06-10T02:26:09;17.80;99.90
4904;DHT22;2467;48.142;11.616;2023-06-10T02:26:41;17.80;99.90
4904;DHT22;2467;48.142;11.616;2023-06-10T02:27:14;17.80;99.90
4904;DHT22;2467;48.142;11.616;2023-06-10T02:27:47;17.80;99.90
4904;DHT22;2467;48.142;11.616;2023-06-10T02:28:19;17.80;99.90
4904;DHT22;2467;48.142;11.616;2023-06-10T02:28:51;17.80;99.90
4904;DHT22;2467;48.142;11.616;2023-06-10T02:29:24;17.80;99.90
4904;DHT22;2467;48.142;11.616;2023-06-10T02:29:56;17.80;99.90
4904;DHT22;2467;48.142;11.616;2023-06-10T02:30:28;17.80;99.90
4904;DHT22;2467;48.142;11.616;2023-06-10T02:31:01;17.70;99.90
4904;DHT22;2467;48.142;11.616;2023-06-10T02:31:33;17.60;99.90
4904;DHT22;2467;48.142;11.616;2023-06-10T02:32:07;17.60;99.90
4904;DHT22;2467;48.142;11.616;2023-06-10T02:32:42;17.60;99.90
4904;DHT22;2467;48.142;11.616;2023-06-10T02:33:14;17.60;99.90
4904;DHT22;2467;48.142;11.616;2023-06-10T02:33:46;17.60;99.90
4904;DHT22;2467;48.142;11.616;2023-06-10T02:34:19;17.60;99.90
4904;DHT22;2467;48.142;11.616;2023-06-10T02:34:51;17.60;99.90
4904;DHT22;2467;48.142;11.616;2023-06-10T02:35:23;17.60;99.90
4904;DHT22;2467;48.142;11.616;2023-06-10T02:35:56;17.60;99.90
4904;DHT22;2467;48.142;11.616;2023-06-10T02:36:29;17.70;99.90
4904;DHT22;2467;48.142;11.616;2023-06-10T02:37:01;17.70;99.90
4904;DHT22;2467;48.142;11.616;2023-06-10T02:37:34;17.70;99.90
4904;DHT22;2467;48.142;11.616;2023-06-10T02:38:06;17.70;99.90
4904;DHT22;2467;48.142;11.616;2023-06-10T02:38:39;17.70;99.90
4904;DHT22;2467;48.142;11.616;2023-06-10T02:39:11;17.70;99.90
4904;DHT22;2467;48.142;11.616;2023-06-10T02:39:44;17.70;99.90
4904;DHT22;2467;48.142;11.616;2023-06-10T02:40:17;17.80;99.90
4904;DHT22;2467;48.142;11.616;2023-06-10T02:40:49;17.70;99.90
4904;DHT22;2467;48.142;11.616;2023-06-10T02:41:21;17.80;99.90
4904;DHT22;2467;48.142;11.616;2023-06-10T02:41:53;17.80;99.90
4904;DHT22;2467;48.142;11.616;2023-06-10T02:42:26;17.80;99.90
4904;DHT22;2467;48.142;11.616;2023-06-10T02:42:58;17.80;99.90
4904;DHT22;2467;48.142;11.616;2023-06-10T02:43:30;17.80;99.90
4904;DHT22;2467;48.142;11.616;2023-06-10T02:44:03;17.80;99.90
4904;DHT22;2467;48.142;11.616;2023-06-10T02:44:35;17.80;99.90
4904;DHT22;2467;48.142;11.616;2023-06-10T02:45:08;17.70;99.90
4904;DHT22;2467;48.142;11.616;2023-06-10T02:45:41;17.70;99.90
4904;DHT22;2467;48.142;11.616;2023-06-10T02:46:13;17.70;99.90
4904;DHT22;2467;48.142;11.616;2023-06-10T02:46:45;17.70;99.90
4904;DHT22;2467;48.142;11.616;2023-06-10T02:47:18;17.60;99.90
4904;DHT22;2467;48.142;11.616;2023-06-10T02:47:50;17.70;99.90
4904;DHT22;2467;48.142;11.616;2023-06-10T02:48:23;17.60;99.90
4904;DHT22;2467;48.142;11.616;2023-06-10T02:48:55;17.60;99.90
4904;DHT22;2467;48.142;11.616;2023-06-10T02:49:28;17.60;99.90
4904;DHT22;2467;48.142;11.616;2023-06-10T02:50:00;17.60;99.90
4904;DHT22;2467;48.142;11.616;2023-06-10T02:50:32;17.60;99.90
4904;DHT22;2467;48.142;11.616;2023-06-10T02:51:04;17.60;99.90
4904;DHT22;2467;48.142;11.616;2023-06-10T02:51:37;17.60;99.90
4904;DHT22;2467;48.142;11.616;2023-06-10T02:52:09;17.60;99.90
4904;DHT22;2467;48.142;11.616;2023-06-10T02:52:44;17.60;99.90
4904;DHT22;2467;48.142;11.616;2023-06-10T02:53:17;17.60;99.90
4904;DHT22;2467;48.142;11.616;2023-06-10T02:53:49;17.60;99.90
4904;DHT22;2467;48.142;11.616;2023-06-10T02:54:21;17.50;99.90
4904;DHT22;2467;48.142;11.616;2023-06-10T02:54:54;17.50;99.90
4904;DHT22;2467;48.142;11.616;2023-06-10T02:55:26;17.50;99.90
4904;DHT22;2467;48.142;11.616;2023-06-10T02:55:58;17.50;99.90
4904;DHT22;2467;48.142;11.616;2023-06-10T02:56:31;17.50;99.90
4904;DHT22;2467;48.142;11.616;2023-06-10T02:57:05;17.50;99.90
4904;DHT22;2467;48.142;11.616;2023-06-10T02:57:37;17.50;99.90
4904;DHT22;2467;48.142;11.616;2023-06-10T02:58:10;17.50;99.90
4904;DHT22;2467;48.142;11.616;2023-06-10T02:58:42;17.50;99.90
4904;DHT22;2467;48.142;11.616;2023-06-10T02:59:14;17.50;99.90
4904;DHT22;2467;48.142;11.616;2023-06-10T02:59:47;17.50;99.90
4904;DHT22;2467;48.142;11.616;2023-06-10T03:00:19;17.50;99.90
4904;DHT22;2467;48.142;11.616;2023-06-10T03:00:52;17.50;99.90
4904;DHT22;2467;48.142;11.616;2023-06-10T03:01:23;17.50;99.90
4904;DHT22;2467;48.142;11.616;2023-06-10T03:01:56;17.50;99.90
4904;DHT22;2467;48.142;11.616;2023-06-10T03:02:29;17.50;99.90
4904;DHT22;2467;48.142;11.616;2023-06-10T03:03:01;17.60;99.90
4904;DHT22;2467;48.142;11.616;2023-06-10T03:03:36;17.50;99.90
4904;DHT22;2467;48.142;11.616;2023-06-10T03:04:14;17.50;99.90
4904;DHT22;2467;48.142;11.616;2023-06-10T03:04:47;17.50;99.90
4904;DHT22;2467;48.142;11.616;2023-06-10T03:05:22;17.50;99.90
4904;DHT22;2467;48.142;11.616;2023-06-10T03:05:54;17.50;99.90
4904;DHT22;2467;48.142;11.616;2023-06-10T03:06:28;17.50;99.90
4904;DHT22;2467;48.142;11.616;2023-06-10T03:07:01;17.50;99.90
4904;DHT22;2467;48.142;11.616;2023-06-10T03:07:36;17.50;99.90
4904;DHT22;2467;48.142;11.616;2023-06-10T03:08:10;17.50;99.90
4904;DHT22;2467;48.142;11.616;2023-06-10T03:08:42;17.50;99.90
4904;DHT22;2467;48.142;11.616;2023-06-10T03:09:15;17.50;99.90
4904;DHT22;2467;48.142;11.616;2023-06-10T03:09:47;17.50;99.90
4904;DHT22;2467;48.142;11.616;2023-06-10T03:10:19;17.50;99.90
4904;DHT22;2467;48.142;11.616;2023-06-10T03:10:52;17.50;99.90
4904;DHT22;2467;48.142;11.616;2023-06-10T03:11:24;17.50;99.90
4904;DHT22;2467;48.142;11.616;2023-06-10T03:11:57;17.50;99.90
4904;DHT22;2467;48.142;11.616;2023-06-10T03:12:30;17.50;99.90
4904;DHT22;2467;48.142;11.616;2023-06-10T03:13:02;17.50;99.90
4904;DHT22;2467;48.142;11.616;2023-06-10T03:13:34;17.50;99.90
4904;DHT22;2467;48.142;11.616;2023-06-10T03:14:06;17.60;99.90
4904;DHT22;2467;48.142;11.616;2023-06-10T03:14:38;17.60;99.90
4904;DHT22;2467;48.142;11.616;2023-06-10T03:15:11;17.60;99.90
4904;DHT22;2467;48.142;11.616;2023-06-10T03:15:43;17.60;99.90
4904;DHT22;2467;48.142;11.616;2023-06-10T03:16:17;17.50;99.90
4904;DHT22;2467;48.142;11.616;2023-06-10T03:16:50;17.50;99.90
4904;DHT22;2467;48.142;11.616;2023-06-10T03:17:22;17.50;99.90
4904;DHT22;2467;48.142;11.616;2023-06-10T03:17:55;17.50;99.90
4904;DHT22;2467;48.142;11.616;2023-06-10T03:18:27;17.40;99.90
4904;DHT22;2467;48.142;11.616;2023-06-10T03:18:59;17.40;99.90
4904;DHT22;2467;48.142;11.616;2023-06-10T03:19:32;17.40;99.90
4904;DHT22;2467;48.142;11.616;2023-06-10T03:20:06;17.40;99.90
4904;DHT22;2467;48.142;11.616;2023-06-10T03:20:39;17.40;99.90
4904;DHT22;2467;48.142;11.616;2023-06-10T03:21:12;17.40;99.90
4904;DHT22;2467;48.142;11.616;2023-06-10T03:21:44;17.40;99.90
4904;DHT22;2467;48.142;11.616;2023-06-10T03:22:17;17.40;99.90
4904;DHT22;2467;48.142;11.616;2023-06-10T03:22:49;17.40;99.90
4904;DHT22;2467;48.142;11.616;2023-06-10T03:23:23;17.40;99.90
4904;DHT22;2467;48.142;11.616;2023-06-10T03:23:55;17.40;99.90
4904;DHT22;2467;48.142;11.616;2023-06-10T03:24:28;17.40;99.90
4904;DHT22;2467;48.142;11.616;2023-06-10T03:25:00;17.40;99.90
4904;DHT22;2467;48.142;11.616;2023-06-10T03:25:32;17.40;99.90
4904;DHT22;2467;48.142;11.616;2023-06-10T03:26:04;17.40;99.90
4904;DHT22;2467;48.142;11.616;2023-06-10T03:26:37;17.40;99.90
4904;DHT22;2467;48.142;11.616;2023-06-10T03:27:09;17.40;99.90
4904;DHT22;2467;48.142;11.616;2023-06-10T03:27:42;17.30;99.90
4904;DHT22;2467;48.142;11.616;2023-06-10T03:28:14;17.40;99.90
4904;DHT22;2467;48.142;11.616;2023-06-10T03:28:47;17.30;99.90
4904;DHT22;2467;48.142;11.616;2023-06-10T03:29:19;17.30;99.90
4904;DHT22;2467;48.142;11.616;2023-06-10T03:29:51;17.30;99.90
4904;DHT22;2467;48.142;11.616;2023-06-10T03:30:23;17.30;99.90
4904;DHT22;2467;48.142;11.616;2023-06-10T03:30:56;17.30;99.90
4904;DHT22;2467;48.142;11.616;2023-06-10T03:31:28;17.30;99.90
4904;DHT22;2467;48.142;11.616;2023-06-10T03:31:59;17.30;99.90
4904;DHT22;2467;48.142;11.616;2023-06-10T03:32:32;17.30;99.90
4904;DHT22;2467;48.142;11.616;2023-06-10T03:33:04;17.30;99.90